Temps/pwm Survey
#9
During the backup it behaves like this:

Code:
2018-09-24,08:13:05,1416,1416,1416,1416,816,816,43,42,152
2018-09-24,08:13:06,1416,1416,1416,1416,816,816,43,42,152
2018-09-24,08:13:07,1416,1416,1416,1416,816,816,43,43,152
2018-09-24,08:13:08,1416,1416,1416,1416,1800,1800,47,43,152
2018-09-24,08:13:09,1416,1416,1416,1416,1416,1416,45,43,152
2018-09-24,08:13:10,1416,1416,1416,1416,1800,1800,46,42,152
2018-09-24,08:13:12,1416,1416,1416,1416,816,816,44,43,152
2018-09-24,08:13:13,1416,1416,1416,1416,1800,1800,48,43,152
2018-09-24,08:13:14,1416,1416,1416,1416,1200,1200,44,43,152
2018-09-24,08:13:15,1416,1416,1416,1416,1008,1008,45,43,185
2018-09-24,08:13:16,1416,1416,1416,1416,816,816,44,43,185
2018-09-24,08:13:17,1416,1416,1416,1416,816,816,44,43,185
2018-09-24,08:13:18,1416,1416,1416,1416,1008,1008,44,43,185
2018-09-24,08:13:19,1416,1416,1416,1416,1008,1008,45,43,164
2018-09-24,08:13:20,1416,1416,1416,1416,816,1008,45,43,164
2018-09-24,08:13:21,1416,1416,1416,1416,1008,1008,44,43,164
2018-09-24,08:13:22,1416,1416,1416,1416,1008,1008,44,43,164
2018-09-24,08:13:23,1416,1416,1416,1416,1608,1608,46,43,164
2018-09-24,08:13:24,1416,1416,1416,1416,816,816,45,43,170
2018-09-24,08:13:25,1416,1416,1416,1416,1416,1416,45,43,170
2018-09-24,08:13:26,1416,1416,1416,1416,600,600,45,43,170
2018-09-24,08:13:27,1416,1416,1416,1416,816,816,44,42,170
2018-09-24,08:13:28,1416,1416,1416,1416,816,816,44,43,170
2018-09-24,08:13:29,1416,1416,1416,1416,1608,1608,46,43,164
2018-09-24,08:13:30,1416,1416,1416,1416,816,816,45,43,164
2018-09-24,08:13:31,1416,1416,1416,1416,1416,1416,46,43,164
2018-09-24,08:13:32,1416,1416,1416,1416,600,816,45,43,164
2018-09-24,08:13:33,1416,1416,1416,1416,1008,1008,44,43,164
2018-09-24,08:13:34,1416,1416,1416,1416,1008,1008,45,43,164
2018-09-24,08:13:35,1416,1416,1416,1416,1008,1008,45,43,164
2018-09-24,08:13:36,1416,1416,1416,1416,1008,1008,44,43,164
2018-09-24,08:13:37,1416,1416,1416,1416,1008,1008,45,43,164
2018-09-24,08:13:38,1416,1416,1416,1416,1008,1008,45,43,164
2018-09-24,08:13:39,1416,1416,1416,1416,816,816,44,43,164
2018-09-24,08:13:40,1416,1416,1416,1416,816,816,43,43,164
2018-09-24,08:13:41,1416,1416,1416,1416,816,816,43,43,164
2018-09-24,08:13:42,1416,1416,1416,1416,816,816,43,43,164
P.S.: -- set a Ratio to PWM:
MAX_THERMAL_TEMP            = 50
MIN_THERMAL_TEMP            = 40


These are the maximum values that I have seen, at the moment, the Casing temperature reaches +37С
By the way, I did not use a thermal conductive silicone pad, from the heatsink kit,
between the microcontroller and the heatsink only thermal grease.
I plan to install a thermostat on the basis of DS1821 (in thermostat mode),
connecting to it the exhaust fan of the casing,
the hysteresis of which will be 5 degrees Celsius, shutdown +32C, switching-on of +37C,
which at the physical level will protect the heatsink overheating,
in cases of failure of the fan on the heatsink.


Attached Files Thumbnail(s)
               
_____________________________________________________________________________________________________________________________________________
my SOHO NAS RockPro64 4GB v2.1 / eMMC 32GB / PCIe -> 4*SATA Marvell 88SE9235 / SD-card 64 GB / NAS Casing / image Debian Stretch Minimal / Kernel 4.4.xxx ayufan
my Multimedia desktops: ASUS H310T G5500, ODROIDs -XU4, -XU3, -C2, -C1;
my trash BananaPi; RPi B, B+; ODROID-W
  Reply


Messages In This Thread
Temps/pwm Survey - by tuxd3v - 09-14-2018, 05:37 PM
RE: Temps/pwm Survey - by tuxd3v - 09-16-2018, 05:10 PM
RE: Temps/pwm Survey - by dukla2000 - 09-17-2018, 03:06 AM
RE: Temps/pwm Survey - by tuxd3v - 09-17-2018, 12:52 PM
RE: Temps/pwm Survey - by romtorwator - 09-17-2018, 07:32 PM
RE: Temps/pwm Survey - by tuxd3v - 09-19-2018, 04:53 PM
RE: Temps/pwm Survey - by romtorwator - 09-22-2018, 08:04 PM
RE: Temps/pwm Survey - by tuxd3v - 09-23-2018, 07:01 PM
RE: Temps/pwm Survey - by romtorwator - 09-23-2018, 09:25 PM
RE: Temps/pwm Survey - by romtorwator - 09-25-2018, 08:51 PM

Forum Jump:


Users browsing this thread: 1 Guest(s)